createdAt,value
2017-10-12T00:00:19.971Z,100213.73
2017-10-12T00:01:25.729Z,100220.33
2017-10-12T00:02:31.489Z,100215.45
2017-10-12T00:03:37.295Z,100220.02
2017-10-12T00:04:43.139Z,100219.61
2017-10-12T00:05:48.971Z,100222.45
2017-10-12T00:06:55.520Z,100224.25
2017-10-12T00:08:02.065Z,100226.67
2017-10-12T00:09:07.855Z,100221.23
2017-10-12T00:10:13.616Z,100218.11
2017-10-12T00:11:19.176Z,100219.70
2017-10-12T00:12:24.540Z,100218.88
2017-10-12T00:13:31.073Z,100217.89
2017-10-12T00:14:36.840Z,100230.08
2017-10-12T00:15:43.373Z,100223.87
2017-10-12T00:16:49.364Z,100222.33
2017-10-12T00:17:55.109Z,100223.23
2017-10-12T00:19:00.861Z,100219.98
2017-10-12T00:20:06.232Z,100218.41
2017-10-12T00:21:11.992Z,100215.70
2017-10-12T00:22:18.445Z,100219.84
2017-10-12T00:23:24.191Z,100219.58
2017-10-12T00:24:30.713Z,100216.34
2017-10-12T00:25:36.473Z,100219.25
2017-10-12T00:26:42.245Z,100225.51
2017-10-12T00:27:48.788Z,100218.05
2017-10-12T00:28:54.529Z,100220.70
2017-10-12T00:30:00.276Z,100217.64
2017-10-12T00:31:06.592Z,100219.14
2017-10-12T00:33:17.010Z,100218.54
2017-10-12T00:34:22.555Z,100211.61
2017-10-12T00:35:28.325Z,100215.12
2017-10-12T00:36:34.080Z,100213.95
2017-10-12T00:37:39.837Z,100214.38
2017-10-12T00:38:45.617Z,100207.02
2017-10-12T00:39:51.365Z,100217.14
2017-10-12T00:40:56.748Z,100214.60
2017-10-12T00:42:02.505Z,100215.38
2017-10-12T00:43:08.253Z,100208.12
2017-10-12T00:44:14.451Z,100204.55
2017-10-12T00:45:20.028Z,100203.05
2017-10-12T00:46:25.478Z,100203.30
2017-10-12T00:47:32.012Z,100205.09
2017-10-12T00:48:37.757Z,100200.02
2017-10-12T00:49:43.536Z,100193.84
2017-10-12T00:50:49.385Z,100198.31
2017-10-12T00:51:55.138Z,100197.56
2017-10-12T00:53:00.888Z,100194.62
2017-10-12T00:54:06.639Z,100192.37
2017-10-12T00:55:12.414Z,100194.24
2017-10-12T00:56:18.166Z,100185.34
2017-10-12T00:57:24.745Z,100193.69
2017-10-12T00:58:30.488Z,100192.24
2017-10-12T00:59:36.819Z,100186.62
2017-10-12T01:00:42.672Z,100199.26
2017-10-12T01:01:48.867Z,100188.02
2017-10-12T01:02:54.279Z,100185.54
2017-10-12T01:04:00.036Z,100191.31
2017-10-12T01:05:05.794Z,100188.34
2017-10-12T01:06:11.586Z,100187.77
2017-10-12T01:07:17.161Z,100186.92
2017-10-12T01:08:22.916Z,100186.17
2017-10-12T01:09:28.488Z,100181.45
2017-10-12T01:10:35.009Z,100181.93
2017-10-12T01:11:40.453Z,100174.34
2017-10-12T01:12:46.207Z,100171.55
2017-10-12T01:13:51.967Z,100167.48
2017-10-12T01:14:58.313Z,100166.25
2017-10-12T01:16:04.090Z,100160.52
2017-10-12T01:17:10.117Z,100156.60
2017-10-12T01:18:16.639Z,100151.48
2017-10-12T01:19:21.697Z,100149.17
2017-10-12T01:20:28.010Z,100147.48
2017-10-12T01:21:33.113Z,100151.73
2017-10-12T01:22:38.207Z,100148.23
2017-10-12T01:23:44.045Z,100146.16
2017-10-12T01:24:49.892Z,100143.77
2017-10-12T01:25:56.058Z,100145.48
2017-10-12T01:27:00.966Z,100142.32
2017-10-12T01:28:07.245Z,100147.05
2017-10-12T01:29:12.311Z,100138.59
2017-10-12T01:30:17.739Z,100146.20
2017-10-12T01:31:23.229Z,100145.36
2017-10-12T01:32:29.124Z,100141.55
2017-10-12T01:33:34.216Z,100140.62
2017-10-12T01:34:39.277Z,100142.03
2017-10-12T01:35:44.342Z,100142.30
2017-10-12T01:36:49.411Z,100136.19
2017-10-12T01:37:54.500Z,100139.47
2017-10-12T01:38:59.402Z,100136.08
2017-10-12T01:40:05.046Z,100135.59
2017-10-12T01:41:11.232Z,100127.14
2017-10-12T01:42:16.292Z,100129.03
2017-10-12T01:43:21.698Z,100124.80
2017-10-12T01:44:26.785Z,100122.88
2017-10-12T01:45:32.658Z,100124.56
2017-10-12T01:46:37.767Z,100118.27
2017-10-12T01:47:43.518Z,100115.14
2017-10-12T01:48:58.123Z,100116.95
2017-10-12T01:50:04.104Z,100109.73
2017-10-12T01:51:09.155Z,100117.79
2017-10-12T01:52:14.913Z,100117.39
2017-10-12T01:53:20.306Z,100120.46
2017-10-12T01:54:26.060Z,100114.05
2017-10-12T01:55:31.844Z,100118.59
2017-10-12T01:56:37.600Z,100119.02
2017-10-12T01:57:44.129Z,100121.58
2017-10-12T01:58:49.872Z,100112.65
2017-10-12T01:59:55.624Z,100116.11
2017-10-12T02:01:01.830Z,100117.28
2017-10-12T02:02:07.584Z,100111.90
2017-10-12T02:03:13.346Z,100107.81
2017-10-12T02:04:19.148Z,100101.37
2017-10-12T02:05:24.905Z,100102.27
2017-10-12T02:06:30.333Z,100107.14
2017-10-12T02:07:36.085Z,100105.04
2017-10-12T02:08:41.835Z,100097.73
2017-10-12T02:09:47.627Z,100102.22
2017-10-12T02:10:53.800Z,100103.75
2017-10-12T02:11:59.834Z,100106.06
2017-10-12T02:13:06.407Z,100106.91
2017-10-12T02:14:12.150Z,100106.09
2017-10-12T02:15:17.897Z,100108.14
2017-10-12T02:16:23.653Z,100107.98
2017-10-12T02:17:29.425Z,100102.79
2017-10-12T02:18:35.216Z,100112.95
2017-10-12T02:19:41.825Z,100112.53
2017-10-12T02:20:47.597Z,100121.31
2017-10-12T02:21:54.109Z,100117.94
2017-10-12T02:22:59.888Z,100121.86
2017-10-12T02:24:05.641Z,100119.20
2017-10-12T02:25:12.164Z,100123.00
2017-10-12T02:26:18.578Z,100123.73
2017-10-12T02:27:24.326Z,100129.59
2017-10-12T02:28:30.141Z,100120.92
2017-10-12T02:29:36.656Z,100129.59
2017-10-12T02:30:42.422Z,100132.81
2017-10-12T02:31:48.941Z,100128.84
2017-10-12T02:32:54.493Z,100128.84
2017-10-12T02:34:01.121Z,100132.91
2017-10-12T02:35:06.869Z,100124.23
2017-10-12T02:36:12.621Z,100126.64
2017-10-12T02:37:18.376Z,100129.80
2017-10-12T02:38:24.124Z,100125.80
2017-10-12T02:39:29.911Z,100127.98
2017-10-12T02:40:36.421Z,100120.81
2017-10-12T02:41:42.186Z,100126.44
2017-10-12T02:42:47.590Z,100122.25
2017-10-12T02:43:53.223Z,100117.77
2017-10-12T02:44:58.809Z,100118.57
2017-10-12T02:46:04.400Z,100122.42
2017-10-12T02:47:10.161Z,100119.03
2017-10-12T02:48:15.958Z,100116.69
2017-10-12T02:49:21.702Z,100117.17
2017-10-12T02:50:27.540Z,100119.47
2017-10-12T02:51:33.300Z,100110.51
2017-10-12T02:52:39.052Z,100111.66
2017-10-12T02:53:44.798Z,100104.70
2017-10-12T02:54:50.553Z,100110.92
2017-10-12T02:55:55.992Z,100107.69
2017-10-12T02:57:02.514Z,100105.08
2017-10-12T02:58:08.270Z,100101.92
2017-10-12T02:59:14.011Z,100100.08
2017-10-12T03:00:19.428Z,100098.16
2017-10-12T03:01:25.205Z,100094.27
2017-10-12T03:02:30.620Z,100089.84
2017-10-12T03:03:36.372Z,100096.22
2017-10-12T03:04:42.125Z,100088.52
2017-10-12T03:05:47.872Z,100085.43
2017-10-12T03:06:53.657Z,100084.11
2017-10-12T03:07:59.213Z,100085.16
2017-10-12T03:09:03.838Z,100089.64
2017-10-12T03:10:09.601Z,100086.30
2017-10-12T03:11:15.350Z,100096.62
2017-10-12T03:12:20.951Z,100099.78
2017-10-12T03:13:26.715Z,100103.80
2017-10-12T03:14:32.617Z,100097.43
2017-10-12T03:15:37.692Z,100093.46
2017-10-12T03:16:42.727Z,100096.11
2017-10-12T03:17:48.769Z,100091.75
2017-10-12T03:18:54.176Z,100091.06
2017-10-12T03:19:59.940Z,100085.67
2017-10-12T03:21:05.688Z,100087.00
2017-10-12T03:22:11.456Z,100086.94
2017-10-12T03:23:17.996Z,100086.61
2017-10-12T03:24:23.752Z,100079.40
2017-10-12T03:25:30.360Z,100067.41
2017-10-12T03:26:35.770Z,100071.61
2017-10-12T03:27:41.577Z,100070.17
2017-10-12T03:28:47.403Z,100078.31
2017-10-12T03:29:53.160Z,100083.61
2017-10-12T03:30:59.006Z,100085.53
2017-10-12T03:32:04.790Z,100091.56
2017-10-12T03:33:10.532Z,100079.66
2017-10-12T03:34:16.340Z,100099.17
2017-10-12T03:35:22.678Z,100095.78
2017-10-12T03:36:28.236Z,100102.16
2017-10-12T03:37:34.585Z,100099.95
2017-10-12T03:38:40.924Z,100110.30
2017-10-12T03:39:46.715Z,100109.55
2017-10-12T03:40:52.276Z,100114.08
2017-10-12T03:41:58.024Z,100112.79
2017-10-12T03:43:03.584Z,100115.46
2017-10-12T03:44:09.206Z,100114.80
2017-10-12T03:45:14.649Z,100117.23
2017-10-12T03:46:20.262Z,100105.84
2017-10-12T03:47:26.009Z,100111.16
2017-10-12T03:48:31.593Z,100110.02
2017-10-12T03:49:37.932Z,100112.98
2017-10-12T03:50:42.827Z,100115.81
2017-10-12T03:51:48.399Z,100109.47
2017-10-12T03:52:54.169Z,100109.80
2017-10-12T03:53:59.980Z,100102.81
2017-10-12T03:55:05.732Z,100103.48
2017-10-12T03:56:12.275Z,100097.67
2017-10-12T03:57:18.024Z,100083.69
2017-10-12T03:58:23.774Z,100079.03
2017-10-12T03:59:30.296Z,100080.09
2017-10-12T04:00:36.052Z,100077.69
2017-10-12T04:01:41.650Z,100079.28
2017-10-12T04:02:47.404Z,100078.70
2017-10-12T04:03:53.155Z,100082.09
2017-10-12T04:04:58.709Z,100085.53
2017-10-12T04:06:04.474Z,100078.41
2017-10-12T04:07:11.008Z,100077.73
2017-10-12T04:08:16.759Z,100078.63
2017-10-12T04:09:22.513Z,100078.39
2017-10-12T04:10:29.029Z,100078.72
2017-10-12T04:11:34.860Z,100074.77
2017-10-12T04:12:40.658Z,100080.66
2017-10-12T04:13:47.174Z,100080.53
2017-10-12T04:14:52.984Z,100081.45
2017-10-12T04:15:58.741Z,100084.30
2017-10-12T04:17:04.489Z,100081.31
2017-10-12T04:18:10.274Z,100080.05
2017-10-12T04:19:15.832Z,100079.53
2017-10-12T04:20:22.353Z,100076.52
2017-10-12T04:21:28.092Z,100078.91
2017-10-12T04:22:33.844Z,100069.66
2017-10-12T04:23:39.435Z,100078.08
2017-10-12T04:24:45.193Z,100072.19
2017-10-12T04:25:50.976Z,100072.94
2017-10-12T04:26:56.738Z,100065.52
2017-10-12T04:28:03.060Z,100073.36
2017-10-12T04:29:08.837Z,100068.91
2017-10-12T04:30:15.368Z,100058.58
2017-10-12T04:31:21.124Z,100057.33
2017-10-12T04:32:27.636Z,100066.12
2017-10-12T04:33:33.448Z,100059.08
2017-10-12T04:34:39.229Z,100054.90
2017-10-12T04:35:45.009Z,100054.74
2017-10-12T04:36:51.600Z,100049.61
2017-10-12T04:37:57.349Z,100051.13
2017-10-12T04:39:03.120Z,100052.30
2017-10-12T04:40:08.904Z,100057.44
2017-10-12T04:41:15.532Z,100063.91
2017-10-12T04:42:21.296Z,100062.85
2017-10-12T04:43:27.827Z,100049.03
2017-10-12T04:44:33.585Z,100058.73
2017-10-12T04:45:39.357Z,100051.58
2017-10-12T04:46:45.121Z,100044.73
2017-10-12T04:47:50.868Z,100039.73
2017-10-12T04:48:56.633Z,100052.23
2017-10-12T04:50:02.393Z,100050.92
2017-10-12T04:51:07.968Z,100051.25
2017-10-12T04:52:13.726Z,100061.95
2017-10-12T04:53:19.296Z,100059.20
2017-10-12T04:54:25.824Z,100061.44
2017-10-12T04:55:31.573Z,100062.27
2017-10-12T04:56:37.163Z,100064.25
2017-10-12T04:57:43.691Z,100059.36
2017-10-12T04:58:49.440Z,100064.82
2017-10-12T04:59:55.037Z,100064.06
2017-10-12T05:01:00.778Z,100070.05
2017-10-12T05:02:06.553Z,100075.57
2017-10-12T05:03:12.336Z,100077.63
2017-10-12T05:04:18.672Z,100077.81
2017-10-12T05:05:24.433Z,100082.31
2017-10-12T05:06:30.193Z,100078.59
2017-10-12T05:07:35.987Z,100077.85
2017-10-12T05:08:41.749Z,100082.20
2017-10-12T05:09:48.272Z,100082.80
2017-10-12T05:10:54.027Z,100087.63
2017-10-12T05:12:00.537Z,100095.84
2017-10-12T05:13:06.328Z,100098.41
2017-10-12T05:14:12.080Z,100100.08
2017-10-12T05:15:17.837Z,100095.10
2017-10-12T05:16:24.370Z,100098.18
2017-10-12T05:17:30.124Z,100098.44
2017-10-12T05:18:36.477Z,100100.09
2017-10-12T05:19:42.240Z,100102.33
2017-10-12T05:20:48.769Z,100096.80
2017-10-12T05:21:54.349Z,100094.63
2017-10-12T05:23:00.104Z,100089.66
2017-10-12T05:24:05.882Z,100086.09
2017-10-12T05:25:11.642Z,100084.77
2017-10-12T05:26:17.397Z,100084.77
2017-10-12T05:27:23.911Z,100083.45
2017-10-12T05:28:29.664Z,100079.15
2017-10-12T05:29:35.439Z,100077.23
2017-10-12T05:30:42.050Z,100082.70
2017-10-12T05:31:47.796Z,100079.30
2017-10-12T05:32:53.544Z,100082.55
2017-10-12T05:33:59.301Z,100077.72
2017-10-12T05:35:05.084Z,100082.97
2017-10-12T05:36:10.849Z,100088.75
2017-10-12T05:37:16.601Z,100094.48
2017-10-12T05:38:22.383Z,100094.48
2017-10-12T05:39:28.912Z,100100.05
2017-10-12T05:40:34.710Z,100099.53
2017-10-12T05:41:40.535Z,100102.70
2017-10-12T05:42:47.045Z,100099.95
2017-10-12T05:43:52.804Z,100110.50
2017-10-12T05:44:58.597Z,100115.06
2017-10-12T05:46:04.444Z,100106.69
2017-10-12T05:47:10.193Z,100116.13
2017-10-12T05:48:15.760Z,100107.69
2017-10-12T05:49:21.513Z,100103.19
2017-10-12T05:50:27.273Z,100109.98
2017-10-12T05:51:33.055Z,100110.66
2017-10-12T05:52:38.800Z,100114.06
2017-10-12T05:53:44.565Z,100113.41
2017-10-12T05:54:50.129Z,100119.88
2017-10-12T05:55:55.890Z,100121.38
2017-10-12T05:57:02.432Z,100123.19
2017-10-12T05:58:08.001Z,100125.78
2017-10-12T05:59:13.752Z,100117.23
2017-10-12T06:00:19.870Z,100124.22
2017-10-12T06:01:25.617Z,100122.22
2017-10-12T06:02:32.168Z,100122.80
2017-10-12T06:03:38.679Z,100113.77
2017-10-12T06:04:44.432Z,100112.11
2017-10-12T06:05:50.197Z,100109.27
2017-10-12T06:06:55.947Z,100111.76
2017-10-12T06:08:02.502Z,100104.70
2017-10-12T06:09:09.100Z,100114.67
2017-10-12T06:10:14.660Z,100117.91
2017-10-12T06:11:20.408Z,100107.13
2017-10-12T06:12:25.980Z,100103.22
2017-10-12T06:13:31.570Z,100102.14
2017-10-12T06:14:37.172Z,100109.78
2017-10-12T06:15:42.716Z,100106.45
2017-10-12T06:16:49.236Z,100104.22
2017-10-12T06:17:55.001Z,100109.46
2017-10-12T06:19:00.779Z,100113.83
2017-10-12T06:20:06.548Z,100118.49
2017-10-12T06:21:12.307Z,100122.64
2017-10-12T06:22:18.061Z,100126.71
2017-10-12T06:23:23.821Z,100124.70
2017-10-12T06:24:30.395Z,100131.55
2017-10-12T06:25:36.955Z,100130.38
2017-10-12T06:26:42.719Z,100139.34
2017-10-12T06:27:48.474Z,100151.22
2017-10-12T06:28:54.285Z,100150.11
2017-10-12T06:29:59.880Z,100151.36
2017-10-12T06:31:05.794Z,100152.85
2017-10-12T06:32:11.366Z,100162.65
2017-10-12T06:33:17.168Z,100163.07
2017-10-12T06:34:22.960Z,100170.45
2017-10-12T06:35:29.513Z,100165.38
2017-10-12T06:36:35.265Z,100174.09
2017-10-12T06:37:41.813Z,100167.63
2017-10-12T06:38:47.582Z,100176.67
2017-10-12T06:39:53.359Z,100182.57
2017-10-12T06:40:59.141Z,100181.14
2017-10-12T06:42:04.372Z,100174.50
2017-10-12T06:43:10.147Z,100172.59
2017-10-12T06:44:15.901Z,100170.62
2017-10-12T06:45:21.657Z,100162.56
2017-10-12T06:46:27.521Z,100170.21
2017-10-12T06:47:33.286Z,100171.34
2017-10-12T06:48:39.070Z,100171.70
2017-10-12T06:49:44.882Z,100174.84
2017-10-12T06:50:51.458Z,100173.02
2017-10-12T06:51:56.892Z,100178.25
2017-10-12T06:53:02.656Z,100181.42
2017-10-12T06:54:08.448Z,100188.55
2017-10-12T06:55:14.961Z,100190.45
2017-10-12T06:56:20.708Z,100185.40
2017-10-12T06:57:26.496Z,100190.45
2017-10-12T06:58:33.096Z,100183.20
2017-10-12T06:59:38.849Z,100189.28
2017-10-12T07:00:44.593Z,100174.91
2017-10-12T07:01:50.346Z,100178.70
2017-10-12T07:02:56.124Z,100183.77
2017-10-12T07:04:02.644Z,100189.92
2017-10-12T07:05:08.413Z,100195.15
2017-10-12T07:06:14.161Z,100194.13
2017-10-12T07:07:20.673Z,100190.70
2017-10-12T07:08:26.456Z,100195.02
2017-10-12T07:09:32.206Z,100195.27
2017-10-12T07:10:38.727Z,100189.44
2017-10-12T07:11:44.535Z,100188.61
2017-10-12T07:12:50.281Z,100187.52
2017-10-12T07:13:56.057Z,100189.34
2017-10-12T07:15:01.629Z,100187.20
2017-10-12T07:16:08.151Z,100191.81
2017-10-12T07:17:13.904Z,100197.97
2017-10-12T07:18:19.464Z,100195.73
2017-10-12T07:19:26.051Z,100202.85
2017-10-12T07:20:31.801Z,100205.95
2017-10-12T07:21:37.412Z,100208.74
2017-10-12T07:22:44.007Z,100213.47
2017-10-12T07:23:49.757Z,100223.16
2017-10-12T07:24:55.537Z,100223.56
2017-10-12T07:26:01.286Z,100220.89
2017-10-12T07:27:07.036Z,100217.17
2017-10-12T07:28:13.564Z,100216.23
2017-10-12T07:29:19.332Z,100217.09
2017-10-12T07:30:25.184Z,100227.80
2017-10-12T07:31:31.709Z,100213.64
2017-10-12T07:32:37.453Z,100218.92
2017-10-12T07:33:43.205Z,100216.34
2017-10-12T07:34:50.456Z,100218.49
2017-10-12T07:35:56.238Z,100224.59
2017-10-12T07:37:02.749Z,100216.56
2017-10-12T07:38:08.508Z,100213.91
2017-10-12T07:39:14.272Z,100213.28
2017-10-12T07:40:19.845Z,100208.95
2017-10-12T07:41:25.620Z,100203.41
2017-10-12T07:42:31.368Z,100197.73
2017-10-12T07:43:37.218Z,100201.52
2017-10-12T07:44:42.968Z,100205.07
2017-10-12T07:45:48.718Z,100204.52
2017-10-12T07:46:54.500Z,100204.50
2017-10-12T07:48:00.245Z,100207.63
2017-10-12T07:49:06.001Z,100211.53
2017-10-12T07:50:11.761Z,100210.13
2017-10-12T07:51:17.514Z,100213.30
2017-10-12T07:52:23.295Z,100213.37
2017-10-12T07:53:29.040Z,100217.09
2017-10-12T07:54:34.797Z,100215.47
2017-10-12T07:55:40.555Z,100214.16
2017-10-12T07:56:46.305Z,100210.13
2017-10-12T07:57:52.103Z,100213.42
2017-10-12T07:58:57.888Z,100201.42
2017-10-12T08:00:03.651Z,100211.20
2017-10-12T08:01:09.417Z,100207.35
2017-10-12T08:02:15.941Z,100203.91
2017-10-12T08:03:21.715Z,100200.04
2017-10-12T08:04:28.048Z,100203.63
2017-10-12T08:05:35.314Z,100202.41
2017-10-12T08:06:41.060Z,100204.45
2017-10-12T08:07:46.808Z,100202.70
2017-10-12T08:08:52.594Z,100200.06
2017-10-12T08:09:58.348Z,100206.67
2017-10-12T08:11:04.113Z,100194.55
2017-10-12T08:12:09.857Z,100203.80
2017-10-12T08:13:15.613Z,100205.73
2017-10-12T08:14:21.388Z,100206.04
2017-10-12T08:15:27.912Z,100215.72
2017-10-12T08:16:33.713Z,100215.13
2017-10-12T08:17:39.458Z,100225.88
2017-10-12T08:18:45.204Z,100208.77
2017-10-12T08:19:50.984Z,100227.13
2017-10-12T08:20:56.746Z,100220.16
2017-10-12T08:22:03.280Z,100224.31
2017-10-12T08:23:09.030Z,100229.95
2017-10-12T08:24:14.796Z,100226.06
2017-10-12T08:25:21.165Z,100221.23
2017-10-12T08:26:26.955Z,100229.68
2017-10-12T08:27:32.514Z,100233.59
2017-10-12T08:28:38.281Z,100238.40
2017-10-12T08:29:44.608Z,100240.34
2017-10-12T08:30:50.384Z,100240.17
2017-10-12T08:31:56.225Z,100241.34
2017-10-12T08:33:01.967Z,100256.20
2017-10-12T08:34:07.753Z,100256.34
2017-10-12T08:35:14.519Z,100248.67
2017-10-12T08:36:20.305Z,100262.44
2017-10-12T08:37:26.815Z,100272.15
2017-10-12T08:38:32.560Z,100265.53
2017-10-12T08:39:38.120Z,100268.88
2017-10-12T08:40:44.640Z,100268.66
2017-10-12T08:41:50.355Z,100275.95
2017-10-12T08:42:56.506Z,100267.23
2017-10-12T08:44:02.108Z,100273.16
2017-10-12T08:45:07.860Z,100272.25
2017-10-12T08:46:14.377Z,100284.97
2017-10-12T08:47:19.980Z,100280.84
2017-10-12T08:48:25.728Z,100280.47
2017-10-12T08:49:31.288Z,100282.94
2017-10-12T08:50:36.860Z,100281.77
2017-10-12T08:51:42.430Z,100280.88
2017-10-12T08:52:48.212Z,100280.35
2017-10-12T08:53:53.953Z,100291.80
2017-10-12T08:54:59.758Z,100280.11
2017-10-12T08:56:05.501Z,100290.91
2017-10-12T08:57:11.343Z,100286.38
2017-10-12T08:58:17.109Z,100286.40
2017-10-12T08:59:22.856Z,100284.98
2017-10-12T09:00:28.593Z,100285.24
2017-10-12T09:01:34.356Z,100293.53
2017-10-12T09:02:40.106Z,100288.84
2017-10-12T09:03:45.882Z,100282.66
2017-10-12T09:04:52.408Z,100278.86
2017-10-12T09:05:58.157Z,100294.63
2017-10-12T09:07:03.905Z,100297.52
2017-10-12T09:08:10.238Z,100288.33
2017-10-12T09:09:16.014Z,100294.52
2017-10-12T09:10:22.385Z,100295.22
2017-10-12T09:11:28.168Z,100295.69
2017-10-12T09:12:33.907Z,100298.93
2017-10-12T09:13:39.656Z,100298.75
2017-10-12T09:14:45.609Z,100299.55
2017-10-12T09:15:51.369Z,100303.42
2017-10-12T09:16:56.933Z,100307.55
2017-10-12T09:18:02.693Z,100309.69
2017-10-12T09:19:08.442Z,100308.27
2017-10-12T09:20:14.217Z,100319.73
2017-10-12T09:21:19.984Z,100328.13
2017-10-12T09:22:26.315Z,100325.05
2017-10-12T09:23:32.068Z,100325.29
2017-10-12T09:24:38.614Z,100325.41
2017-10-12T09:25:44.385Z,100325.69
2017-10-12T09:26:50.724Z,100329.17
2017-10-12T09:27:56.925Z,100339.33
2017-10-12T09:29:02.321Z,100336.64
2017-10-12T09:30:08.578Z,100336.70
2017-10-12T09:31:14.776Z,100336.99
2017-10-12T09:32:19.869Z,100337.70
2017-10-12T09:33:25.081Z,100337.33
2017-10-12T09:34:31.260Z,100338.07
2017-10-12T09:35:36.113Z,100344.11
2017-10-12T09:36:41.012Z,100340.42
2017-10-12T09:37:46.448Z,100338.88
2017-10-12T09:38:51.524Z,100349.40
2017-10-12T09:39:57.351Z,100351.38
2017-10-12T09:41:03.180Z,100350.23
2017-10-12T09:42:08.786Z,100357.45
2017-10-12T09:43:14.365Z,100365.20
2017-10-12T09:44:19.623Z,100361.55
2017-10-12T09:45:25.824Z,100364.33
2017-10-12T09:46:31.237Z,100352.41
2017-10-12T09:47:36.334Z,100357.87
2017-10-12T09:48:42.853Z,100364.16
2017-10-12T09:49:48.599Z,100367.25
2017-10-12T09:50:53.668Z,100353.62
2017-10-12T09:51:59.476Z,100365.91
2017-10-12T09:53:04.972Z,100364.49
2017-10-12T09:54:10.389Z,100369.75
2017-10-12T09:55:15.585Z,100362.30
2017-10-12T09:56:21.899Z,100380.36
2017-10-12T09:57:27.668Z,100384.94
2017-10-12T09:58:33.277Z,100386.37
2017-10-12T09:59:39.036Z,100379.24
2017-10-12T10:00:44.789Z,100384.31
2017-10-12T10:01:50.200Z,100394.35
2017-10-12T10:02:55.977Z,100398.28
2017-10-12T10:04:01.570Z,100398.36
2017-10-12T10:05:07.416Z,100398.02
2017-10-12T10:06:13.180Z,100392.00
2017-10-12T10:07:18.928Z,100401.67
2017-10-12T10:08:24.509Z,100408.81
2017-10-12T10:09:30.290Z,100407.45
2017-10-12T10:10:36.040Z,100413.30
2017-10-12T10:11:41.809Z,100417.05
2017-10-12T10:12:48.328Z,100409.52
2017-10-12T10:13:54.333Z,100404.08
2017-10-12T10:15:00.118Z,100415.00
2017-10-12T10:16:05.200Z,100409.68
2017-10-12T10:17:11.716Z,100413.16
2017-10-12T10:18:17.275Z,100418.54
2017-10-12T10:19:23.022Z,100422.11
2017-10-12T10:20:29.589Z,100426.13
2017-10-12T10:21:36.094Z,100431.42
2017-10-12T10:22:41.851Z,100424.67
2017-10-12T10:23:47.613Z,100419.98
2017-10-12T10:24:53.391Z,100428.83
2017-10-12T10:25:58.957Z,100427.21
2017-10-12T10:27:04.700Z,100429.67
2017-10-12T10:28:10.273Z,100420.82
2017-10-12T10:29:15.092Z,100422.78
2017-10-12T10:30:20.869Z,100417.39
2017-10-12T10:31:26.659Z,100434.77
2017-10-12T10:32:32.413Z,100431.33
2017-10-12T10:33:37.979Z,100432.25
2017-10-12T10:34:44.493Z,100429.37
2017-10-12T10:35:50.060Z,100440.55
2017-10-12T10:36:56.634Z,100428.12
2017-10-12T10:38:03.141Z,100435.52
2017-10-12T10:39:08.914Z,100431.06
2017-10-12T10:40:14.687Z,100437.69
2017-10-12T10:41:21.198Z,100431.23
2017-10-12T10:42:27.745Z,100440.16
2017-10-12T10:43:33.495Z,100445.70
2017-10-12T10:44:39.245Z,100441.56
2017-10-12T10:45:45.004Z,100452.30
2017-10-12T10:46:51.523Z,100452.09
2017-10-12T10:47:57.299Z,100438.83
2017-10-12T10:49:03.045Z,100446.38
2017-10-12T10:50:09.195Z,100452.47
2017-10-12T10:51:15.718Z,100453.61
2017-10-12T10:52:21.485Z,100441.48
2017-10-12T10:53:27.670Z,100456.45
2017-10-12T10:54:33.417Z,100453.51
2017-10-12T10:55:39.169Z,100452.49
2017-10-12T10:56:44.916Z,100465.55
2017-10-12T10:57:50.678Z,100459.42
2017-10-12T10:58:56.453Z,100453.59
2017-10-12T11:00:02.240Z,100464.47
2017-10-12T11:01:07.988Z,100465.79
2017-10-12T11:02:13.760Z,100485.59
2017-10-12T11:03:19.344Z,100471.28
2017-10-12T11:04:25.129Z,100478.28
2017-10-12T11:05:30.881Z,100473.03
2017-10-12T11:06:36.633Z,100482.03
2017-10-12T11:07:42.445Z,100473.09
2017-10-12T11:08:48.197Z,100476.44
2017-10-12T11:09:53.972Z,100484.23
2017-10-12T11:11:00.489Z,100486.41
2017-10-12T11:12:06.254Z,100481.62
2017-10-12T11:13:12.010Z,100483.50
2017-10-12T11:14:17.759Z,100486.91
2017-10-12T11:15:24.347Z,100493.66
2017-10-12T11:16:30.351Z,100487.70
2017-10-12T11:17:36.130Z,100492.28
2017-10-12T11:18:41.870Z,100489.88
2017-10-12T11:19:47.637Z,100495.41
2017-10-12T11:20:53.428Z,100495.75
2017-10-12T11:21:59.184Z,100494.70
2017-10-12T11:23:05.715Z,100503.45
2017-10-12T11:24:13.639Z,100511.56
2017-10-12T11:25:19.970Z,100515.75
2017-10-12T11:26:25.746Z,100506.76
2017-10-12T11:27:31.504Z,100508.17
2017-10-12T11:28:37.248Z,100507.08
2017-10-12T11:29:43.001Z,100513.23
2017-10-12T11:30:48.749Z,100524.06
2017-10-12T11:31:54.538Z,100507.69
2017-10-12T11:33:01.061Z,100517.70
2017-10-12T11:34:06.805Z,100524.06
2017-10-12T11:35:12.593Z,100519.48
2017-10-12T11:36:18.904Z,100513.03
2017-10-12T11:37:24.683Z,100518.92
2017-10-12T11:38:31.202Z,100523.47
2017-10-12T11:39:36.958Z,100523.22
2017-10-12T11:40:42.714Z,100518.52
2017-10-12T11:41:49.233Z,100523.03
2017-10-12T11:42:55.052Z,100523.27
2017-10-12T11:44:00.864Z,100520.92
2017-10-12T11:45:07.370Z,100529.88
2017-10-12T11:46:13.242Z,100531.16
2017-10-12T11:47:18.813Z,100520.27
2017-10-12T11:48:24.662Z,100526.48
2017-10-12T11:49:31.185Z,100534.17
2017-10-12T11:50:36.745Z,100519.81
2017-10-12T11:51:43.284Z,100528.59
2017-10-12T11:52:49.052Z,100530.19
2017-10-12T11:53:54.878Z,100532.44
2017-10-12T11:55:00.256Z,100545.61
2017-10-12T11:56:05.234Z,100542.84
2017-10-12T11:57:11.568Z,100545.61
2017-10-12T11:58:17.374Z,100542.52
2017-10-12T11:59:23.208Z,100536.52
2017-10-12T12:00:29.028Z,100555.23
2017-10-12T12:01:35.600Z,100536.52
2017-10-12T12:02:42.162Z,100528.82
2017-10-12T12:03:48.724Z,100530.33
2017-10-12T12:04:54.517Z,100538.34
2017-10-12T12:06:00.278Z,100533.21
2017-10-12T12:07:06.026Z,100537.08
2017-10-12T12:08:12.403Z,100540.97
2017-10-12T12:09:18.158Z,100535.91
2017-10-12T12:10:23.760Z,100547.05
2017-10-12T12:11:30.273Z,100549.66
2017-10-12T12:12:36.030Z,100548.36
2017-10-12T12:13:41.779Z,100546.67
2017-10-12T12:14:47.525Z,100555.45
2017-10-12T12:15:53.307Z,100556.86
2017-10-12T12:16:59.840Z,100558.16
2017-10-12T12:18:05.608Z,100554.86
2017-10-12T12:19:11.385Z,100560.83
2017-10-12T12:20:17.135Z,100562.34
2017-10-12T12:21:22.918Z,100564.12
2017-10-12T12:22:29.434Z,100555.95
2017-10-12T12:23:35.186Z,100560.83
2017-10-12T12:24:40.940Z,100571.16
2017-10-12T12:25:46.684Z,100556.10
2017-10-12T12:26:52.263Z,100573.05
2017-10-12T12:27:58.007Z,100573.52
2017-10-12T12:29:03.769Z,100569.37
2017-10-12T12:30:09.521Z,100580.82
2017-10-12T12:31:15.320Z,100576.56
2017-10-12T12:32:21.854Z,100572.21